Time;durP1;ratioP1;P1;durP2;ratioP2;P2;SDS_P1;SDS_P2;PMS_P1;PMS_P2;Temp;Humidity;BMP_temperature;BMP_pressure;BME280_temperature;BME280_humidity;BME280_pressure;Samples;Min_cycle;Max_cycle;Signal;HPM_P1;HPM_P2
2022/08/21 00:01:19;;;;;;;;;;;14.50;99.90;;;;;;5092996;28;19954;-75
2022/08/21 00:03:45;;;;;;;;;;;14.50;99.90;;;;;;5093951;28;19912;-75
2022/08/21 00:06:10;;;;;;;;;;;14.50;99.90;;;;;;5092903;28;20421;-75
2022/08/21 00:08:36;;;;;;;;;;;14.50;99.90;;;;;;5091826;28;19986;-75
2022/08/21 00:11:02;;;;;;;;;;;14.60;99.90;;;;;;5092932;28;19916;-74
2022/08/21 00:13:27;;;;;;;;;;;14.70;99.90;;;;;;5092445;28;19908;-75
2022/08/21 00:15:53;;;;;;;;;;;14.70;99.90;;;;;;5091379;28;19912;-75
2022/08/21 00:18:19;;;;;;;;;;;14.70;99.90;;;;;;5092466;28;19912;-74
2022/08/21 00:20:45;;;;;;;;;;;14.80;99.90;;;;;;5092910;28;20325;-74
2022/08/21 00:23:11;;;;;;;;;;;14.90;99.90;;;;;;5092395;28;19915;-75
2022/08/21 00:25:36;;;;;;;;;;;14.90;99.90;;;;;;5093315;28;19908;-75
2022/08/21 00:28:02;;;;;;;;;;;15.00;99.90;;;;;;5092758;28;19960;-75
2022/08/21 00:30:28;;;;;;;;;;;15.00;99.90;;;;;;5091971;28;19923;-75
2022/08/21 00:32:55;;;;;;;;;;;15.00;99.90;;;;;;5091650;28;19908;-76
2022/08/21 00:35:23;;;;;;;;;;;15.00;99.90;;;;;;5092361;28;19920;-75
2022/08/21 00:37:48;;;;;;;;;;;15.00;99.90;;;;;;5092457;28;19919;-74
2022/08/21 00:40:16;;;;;;;;;;;15.00;99.90;;;;;;5091910;28;20276;-76
2022/08/21 00:42:43;;;;;;;;;;;15.00;99.90;;;;;;5092274;28;19908;-75
2022/08/21 00:45:08;;;;;;;;;;;15.00;99.90;;;;;;5092094;28;19914;-76
2022/08/21 00:47:34;;;;;;;;;;;15.00;99.90;;;;;;5092678;28;19907;-75
2022/08/21 00:50:00;;;;;;;;;;;15.00;99.90;;;;;;5092444;28;20344;-76
2022/08/21 00:52:27;;;;;;;;;;;15.00;99.90;;;;;;5092219;28;19908;-76
2022/08/21 00:54:54;;;;;;;;;;;15.10;99.90;;;;;;5092659;28;20014;-76
2022/08/21 00:57:22;;;;;;;;;;;15.00;99.90;;;;;;5091484;28;19912;-76
2022/08/21 00:59:49;;;;;;;;;;;15.00;99.90;;;;;;5092111;28;19923;-75
2022/08/21 01:02:15;;;;;;;;;;;15.00;99.90;;;;;;5091690;28;20303;-76
2022/08/21 01:04:40;;;;;;;;;;;14.90;99.90;;;;;;5095288;28;19908;-76
2022/08/21 01:07:06;;;;;;;;;;;15.00;99.90;;;;;;5096381;28;19915;-76
2022/08/21 01:09:32;;;;;;;;;;;14.90;99.90;;;;;;5096696;28;19908;-74
2022/08/21 01:11:58;;;;;;;;;;;14.90;99.90;;;;;;5097388;28;19966;-74
2022/08/21 01:14:24;;;;;;;;;;;14.80;99.90;;;;;;5096529;28;20056;-74
2022/08/21 01:16:51;;;;;;;;;;;14.70;99.90;;;;;;5097047;28;20431;-74
2022/08/21 01:19:17;;;;;;;;;;;14.70;99.90;;;;;;5096479;28;20365;-74
2022/08/21 01:21:43;;;;;;;;;;;14.60;99.90;;;;;;5096595;28;19932;-73
2022/08/21 01:24:09;;;;;;;;;;;14.60;99.90;;;;;;5096380;28;19912;-74
2022/08/21 01:26:35;;;;;;;;;;;14.50;99.90;;;;;;5095343;28;19915;-74
2022/08/21 01:29:04;;;;;;;;;;;14.40;99.90;;;;;;5096528;28;20383;-74
2022/08/21 01:31:31;;;;;;;;;;;14.30;99.90;;;;;;5095953;28;19943;-74
2022/08/21 01:33:57;;;;;;;;;;;14.20;99.90;;;;;;5096355;28;19920;-74
2022/08/21 01:36:23;;;;;;;;;;;14.20;99.90;;;;;;5096146;28;20019;-74
2022/08/21 01:38:48;;;;;;;;;;;14.10;99.90;;;;;;5096302;28;19919;-74
2022/08/21 01:41:15;;;;;;;;;;;14.20;99.90;;;;;;5095594;28;19908;-74
2022/08/21 01:43:41;;;;;;;;;;;14.00;99.90;;;;;;5096252;28;20357;-74
2022/08/21 01:46:07;;;;;;;;;;;14.00;99.90;;;;;;5096484;28;20077;-73
2022/08/21 01:48:32;;;;;;;;;;;14.00;99.90;;;;;;5095565;28;19912;-73
2022/08/21 01:50:58;;;;;;;;;;;13.90;99.90;;;;;;5094977;28;19908;-74
2022/08/21 01:53:24;;;;;;;;;;;13.90;99.90;;;;;;5094488;28;19915;-74
2022/08/21 01:55:49;;;;;;;;;;;13.80;99.90;;;;;;5096046;28;19912;-73
2022/08/21 01:58:15;;;;;;;;;;;13.70;99.90;;;;;;5095860;28;20260;-74
2022/08/21 02:00:41;;;;;;;;;;;13.70;99.90;;;;;;5095957;28;19912;-73
2022/08/21 02:03:07;;;;;;;;;;;13.70;99.90;;;;;;5096079;28;19908;-73
2022/08/21 02:05:32;;;;;;;;;;;13.60;99.90;;;;;;5095840;28;19935;-74
2022/08/21 02:07:58;;;;;;;;;;;13.60;99.90;;;;;;5095697;28;19908;-74
2022/08/21 02:10:26;;;;;;;;;;;13.50;99.90;;;;;;5095520;28;19908;-74
2022/08/21 02:12:52;;;;;;;;;;;13.50;99.90;;;;;;5095888;28;19952;-74
2022/08/21 02:15:18;;;;;;;;;;;13.50;99.90;;;;;;5094424;28;19912;-74
2022/08/21 02:17:45;;;;;;;;;;;13.50;99.90;;;;;;5095705;28;19912;-74
2022/08/21 02:20:14;;;;;;;;;;;13.50;99.90;;;;;;5095905;28;19908;-74
2022/08/21 02:22:40;;;;;;;;;;;13.40;99.90;;;;;;5095829;28;19908;-74
2022/08/21 02:25:06;;;;;;;;;;;13.30;99.90;;;;;;5095868;28;19915;-74
2022/08/21 02:27:37;;;;;;;;;;;13.30;99.90;;;;;;5094130;28;19999;-74
2022/08/21 02:30:03;;;;;;;;;;;13.20;99.90;;;;;;5095376;28;19908;-74
2022/08/21 02:32:28;;;;;;;;;;;13.30;99.90;;;;;;5094592;28;19916;-73
2022/08/21 02:34:54;;;;;;;;;;;13.30;99.90;;;;;;5095557;28;20016;-73
2022/08/21 02:37:19;;;;;;;;;;;13.20;99.90;;;;;;5094842;28;19912;-73
2022/08/21 02:39:45;;;;;;;;;;;13.20;99.90;;;;;;5095010;28;19912;-73
2022/08/21 02:42:10;;;;;;;;;;;13.20;99.90;;;;;;5094910;28;19908;-73
2022/08/21 02:44:36;;;;;;;;;;;13.10;99.90;;;;;;5094781;28;20272;-73
2022/08/21 02:47:01;;;;;;;;;;;13.10;99.90;;;;;;5095674;28;19908;-74
2022/08/21 02:49:27;;;;;;;;;;;13.10;99.90;;;;;;5094601;28;19998;-74
2022/08/21 02:51:53;;;;;;;;;;;13.00;99.90;;;;;;5095500;28;19908;-74
2022/08/21 02:54:18;;;;;;;;;;;13.00;99.90;;;;;;5094332;28;20262;-74
2022/08/21 02:56:44;;;;;;;;;;;13.00;99.90;;;;;;5094904;28;19912;-74
2022/08/21 02:59:09;;;;;;;;;;;13.00;99.90;;;;;;5093817;28;19938;-73
2022/08/21 03:01:37;;;;;;;;;;;13.10;99.90;;;;;;5094421;28;20402;-73
2022/08/21 03:04:02;;;;;;;;;;;13.00;99.90;;;;;;5094966;28;19908;-73
2022/08/21 03:06:29;;;;;;;;;;;12.90;99.90;;;;;;5094106;28;19908;-73
2022/08/21 03:08:54;;;;;;;;;;;12.90;99.90;;;;;;5094996;28;19915;-73
2022/08/21 03:11:20;;;;;;;;;;;12.80;99.90;;;;;;5093998;28;20357;-73
2022/08/21 03:13:46;;;;;;;;;;;12.70;99.90;;;;;;5094628;28;19939;-73
2022/08/21 03:16:11;;;;;;;;;;;12.70;99.90;;;;;;5094785;28;19912;-73
2022/08/21 03:18:37;;;;;;;;;;;12.60;99.90;;;;;;5094092;28;19912;-73
2022/08/21 03:21:03;;;;;;;;;;;12.60;99.90;;;;;;5094616;28;19908;-73
2022/08/21 03:23:30;;;;;;;;;;;12.50;99.90;;;;;;5093978;28;20273;-74
2022/08/21 03:25:56;;;;;;;;;;;12.50;99.90;;;;;;5094178;28;20417;-74
2022/08/21 03:28:21;;;;;;;;;;;12.50;99.90;;;;;;5093568;28;19939;-74
2022/08/21 03:30:48;;;;;;;;;;;12.40;99.90;;;;;;5094367;28;19912;-74
2022/08/21 03:33:14;;;;;;;;;;;12.40;99.90;;;;;;5094301;28;20383;-74
2022/08/21 03:35:40;;;;;;;;;;;12.30;99.90;;;;;;5093471;28;20024;-74
2022/08/21 03:38:06;;;;;;;;;;;12.30;99.90;;;;;;5094328;28;20335;-74
2022/08/21 03:40:31;;;;;;;;;;;12.20;99.90;;;;;;5092232;28;19912;-74
2022/08/21 03:42:57;;;;;;;;;;;12.20;99.90;;;;;;5094208;28;19919;-74
2022/08/21 03:45:22;;;;;;;;;;;12.20;99.90;;;;;;5093624;28;20376;-75
2022/08/21 03:47:55;;;;;;;;;;;12.10;99.90;;;;;;5094202;28;19960;-74
2022/08/21 03:50:22;;;;;;;;;;;12.10;99.90;;;;;;5093483;28;19912;-74
2022/08/21 03:52:48;;;;;;;;;;;12.00;99.90;;;;;;5093964;28;19919;-74
2022/08/21 03:55:14;;;;;;;;;;;11.90;99.90;;;;;;5093970;28;20265;-73
2022/08/21 03:57:39;;;;;;;;;;;11.90;99.90;;;;;;5093137;28;19908;-74
2022/08/21 04:00:08;;;;;;;;;;;11.70;99.90;;;;;;5093743;28;20003;-74
2022/08/21 04:02:33;;;;;;;;;;;11.70;99.90;;;;;;5093101;28;19961;-73
2022/08/21 04:04:59;;;;;;;;;;;11.70;99.90;;;;;;5093697;28;20006;-72
2022/08/21 04:07:25;;;;;;;;;;;11.60;99.90;;;;;;5092942;28;19915;-73
2022/08/21 04:09:50;;;;;;;;;;;11.50;99.90;;;;;;5093831;28;20253;-73
2022/08/21 04:12:16;;;;;;;;;;;11.50;99.90;;;;;;5093593;28;19996;-73
2022/08/21 04:14:41;;;;;;;;;;;11.50;99.90;;;;;;5093061;28;19904;-73
2022/08/21 04:17:07;;;;;;;;;;;11.40;99.90;;;;;;5093576;28;19923;-73
2022/08/21 04:19:32;;;;;;;;;;;11.40;99.90;;;;;;5092522;28;19995;-73
2022/08/21 04:21:58;;;;;;;;;;;11.40;99.90;;;;;;5093586;28;19931;-73
2022/08/21 04:24:23;;;;;;;;;;;11.40;99.90;;;;;;5091696;28;19908;-74
2022/08/21 04:26:49;;;;;;;;;;;11.30;99.90;;;;;;5093560;28;20238;-73
2022/08/21 04:29:15;;;;;;;;;;;11.30;99.90;;;;;;5092996;28;20436;-74
2022/08/21 04:31:43;;;;;;;;;;;11.30;99.90;;;;;;5092657;28;19951;-74
2022/08/21 04:34:09;;;;;;;;;;;11.30;99.90;;;;;;5093229;28;19927;-74
2022/08/21 04:36:34;;;;;;;;;;;11.40;99.90;;;;;;5092242;28;19912;-74
2022/08/21 04:39:00;;;;;;;;;;;11.40;99.90;;;;;;5093075;28;20319;-73
2022/08/21 04:41:25;;;;;;;;;;;11.40;99.90;;;;;;5092689;28;19954;-73
2022/08/21 04:43:51;;;;;;;;;;;11.30;99.90;;;;;;5093256;28;20018;-73
2022/08/21 04:46:18;;;;;;;;;;;11.30;99.90;;;;;;5093270;28;20367;-73
2022/08/21 04:48:44;;;;;;;;;;;11.30;99.90;;;;;;5091131;28;19960;-74
2022/08/21 04:51:12;;;;;;;;;;;11.30;99.90;;;;;;5092819;28;19911;-74
2022/08/21 04:53:45;;;;;;;;;;;11.30;99.90;;;;;;5092544;28;19912;-74
2022/08/21 04:56:34;;;;;;;;;;;11.30;99.90;;;;;;5092524;28;19912;-73
2022/08/21 04:59:03;;;;;;;;;;;11.30;99.90;;;;;;5087473;28;19912;-73
2022/08/21 05:01:30;;;;;;;;;;;11.30;99.90;;;;;;5092111;28;19915;-74
2022/08/21 05:03:58;;;;;;;;;;;11.30;99.90;;;;;;5092948;28;19908;-73
2022/08/21 05:06:23;;;;;;;;;;;11.20;99.90;;;;;;5092693;28;19915;-74
2022/08/21 05:08:51;;;;;;;;;;;11.20;99.90;;;;;;5092268;28;19908;-73
2022/08/21 05:11:17;;;;;;;;;;;11.10;99.90;;;;;;5092940;28;20547;-74
2022/08/21 05:13:43;;;;;;;;;;;11.00;99.90;;;;;;5092132;28;19942;-73
2022/08/21 05:16:09;;;;;;;;;;;11.00;99.90;;;;;;5092728;28;19912;-73
2022/08/21 05:18:34;;;;;;;;;;;11.00;99.90;;;;;;5091973;28;19914;-73
2022/08/21 05:21:00;;;;;;;;;;;11.00;99.90;;;;;;5092809;28;19962;-73
2022/08/21 05:23:26;;;;;;;;;;;10.90;99.90;;;;;;5092273;28;19912;-73
2022/08/21 05:25:52;;;;;;;;;;;11.00;99.90;;;;;;5092522;28;19908;-74
2022/08/21 05:28:18;;;;;;;;;;;11.00;99.90;;;;;;5092461;28;19912;-74
2022/08/21 05:30:44;;;;;;;;;;;11.00;99.90;;;;;;5090749;28;19908;-74
2022/08/21 05:33:09;;;;;;;;;;;11.00;99.90;;;;;;5092337;28;19908;-73
2022/08/21 05:35:35;;;;;;;;;;;11.10;99.90;;;;;;5092066;28;19963;-73
2022/08/21 05:38:01;;;;;;;;;;;11.10;99.90;;;;;;5092723;28;19912;-73
2022/08/21 05:40:27;;;;;;;;;;;11.10;99.90;;;;;;5092356;28;19951;-73
2022/08/21 05:42:53;;;;;;;;;;;11.00;99.90;;;;;;5092673;28;20349;-73
2022/08/21 05:45:19;;;;;;;;;;;11.00;99.90;;;;;;5092616;28;19908;-73
2022/08/21 05:47:44;;;;;;;;;;;11.10;99.90;;;;;;5091937;28;19908;-73
2022/08/21 05:50:10;;;;;;;;;;;11.10;99.90;;;;;;5094132;28;19915;-73
2022/08/21 05:52:36;;;;;;;;;;;11.10;99.90;;;;;;5095648;28;19960;-74
2022/08/21 05:55:01;;;;;;;;;;;11.10;99.90;;;;;;5096222;28;19934;-73
2022/08/21 05:57:27;;;;;;;;;;;11.20;99.90;;;;;;5095904;28;20353;-74
2022/08/21 05:59:53;;;;;;;;;;;11.40;99.90;;;;;;5095666;28;19912;-74
2022/08/21 06:02:19;;;;;;;;;;;11.60;99.90;;;;;;5096079;28;19908;-74
2022/08/21 06:04:45;;;;;;;;;;;11.80;99.90;;;;;;5095371;28;20387;-74
2022/08/21 06:07:11;;;;;;;;;;;12.00;99.90;;;;;;5095886;28;19934;-74
2022/08/21 06:09:37;;;;;;;;;;;12.20;99.90;;;;;;5095355;28;19991;-74
2022/08/21 06:12:08;;;;;;;;;;;12.30;99.90;;;;;;5095807;28;19908;-74
2022/08/21 06:14:34;;;;;;;;;;;12.40;99.90;;;;;;5095469;28;19908;-74
2022/08/21 06:17:06;;;;;;;;;;;12.50;99.90;;;;;;5095760;28;20019;-74
2022/08/21 06:19:32;;;;;;;;;;;12.50;99.90;;;;;;5095154;28;20323;-74
2022/08/21 06:21:58;;;;;;;;;;;12.50;99.90;;;;;;5094768;28;19912;-73
2022/08/21 06:24:24;;;;;;;;;;;12.40;99.90;;;;;;5094470;28;20277;-74
2022/08/21 06:26:50;;;;;;;;;;;12.30;99.90;;;;;;5094993;28;19908;-74
2022/08/21 06:29:16;;;;;;;;;;;12.30;99.90;;;;;;5095601;28;19916;-74
2022/08/21 06:31:42;;;;;;;;;;;12.40;99.90;;;;;;5094898;28;19908;-74
2022/08/21 06:34:08;;;;;;;;;;;12.60;99.90;;;;;;5094819;28;20383;-74
2022/08/21 06:36:33;;;;;;;;;;;12.70;99.90;;;;;;5094736;28;20238;-74
2022/08/21 06:38:59;;;;;;;;;;;12.90;99.90;;;;;;5095312;28;20017;-73
2022/08/21 06:41:25;;;;;;;;;;;13.00;99.90;;;;;;5095778;28;19908;-74
2022/08/21 06:43:51;;;;;;;;;;;13.10;99.90;;;;;;5095103;28;19948;-73
2022/08/21 06:46:17;;;;;;;;;;;13.10;99.90;;;;;;5095010;28;20017;-74
2022/08/21 06:48:42;;;;;;;;;;;13.10;99.90;;;;;;5094934;28;20292;-73
2022/08/21 06:51:08;;;;;;;;;;;13.20;99.90;;;;;;5095303;28;19909;-74
2022/08/21 06:53:33;;;;;;;;;;;13.20;99.90;;;;;;5094748;28;19909;-74
2022/08/21 06:55:59;;;;;;;;;;;13.30;99.90;;;;;;5094717;28;20246;-73
2022/08/21 06:58:25;;;;;;;;;;;13.50;99.90;;;;;;5094970;28;19934;-72
2022/08/21 07:00:51;;;;;;;;;;;13.60;99.90;;;;;;5094068;28;19998;-73
2022/08/21 07:03:24;;;;;;;;;;;13.80;99.90;;;;;;5094275;28;19908;-73
2022/08/21 07:05:50;;;;;;;;;;;13.90;99.90;;;;;;5094191;28;19915;-73
2022/08/21 07:08:16;;;;;;;;;;;14.10;99.90;;;;;;5094503;28;19907;-73
2022/08/21 07:10:42;;;;;;;;;;;14.20;99.90;;;;;;5094022;28;19914;-73
2022/08/21 07:13:07;;;;;;;;;;;14.30;99.90;;;;;;5094142;28;19998;-74
2022/08/21 07:15:33;;;;;;;;;;;14.40;99.90;;;;;;5094140;28;19908;-73
2022/08/21 07:17:59;;;;;;;;;;;14.60;99.90;;;;;;5093923;28;19912;-74
2022/08/21 07:20:25;;;;;;;;;;;14.70;99.90;;;;;;5094368;28;20001;-73
2022/08/21 07:22:51;;;;;;;;;;;14.90;99.90;;;;;;5093985;28;19915;-73
2022/08/21 07:25:16;;;;;;;;;;;15.10;99.90;;;;;;5093194;28;19908;-74
2022/08/21 07:27:42;;;;;;;;;;;15.30;99.90;;;;;;5093943;28;20292;-74
2022/08/21 07:30:08;;;;;;;;;;;15.50;99.90;;;;;;5094682;28;20011;-74
2022/08/21 07:32:33;;;;;;;;;;;15.60;99.90;;;;;;5094509;28;20345;-73
2022/08/21 07:34:59;;;;;;;;;;;15.80;99.90;;;;;;5093840;28;19960;-74
2022/08/21 07:37:24;;;;;;;;;;;15.90;99.90;;;;;;5094173;28;20352;-74
2022/08/21 07:39:51;;;;;;;;;;;16.00;99.90;;;;;;5092426;28;19966;-74
2022/08/21 07:42:16;;;;;;;;;;;16.00;99.90;;;;;;5093017;28;19908;-74
2022/08/21 07:44:42;;;;;;;;;;;15.90;99.90;;;;;;5093528;28;20315;-73
2022/08/21 07:47:08;;;;;;;;;;;16.10;99.90;;;;;;5093841;28;19912;-73
2022/08/21 07:49:34;;;;;;;;;;;16.10;99.90;;;;;;5094075;28;19908;-74
2022/08/21 07:51:59;;;;;;;;;;;16.30;99.90;;;;;;5093193;28;19909;-74
2022/08/21 07:54:25;;;;;;;;;;;16.40;99.90;;;;;;5092811;28;19908;-73
2022/08/21 07:56:51;;;;;;;;;;;16.50;99.90;;;;;;5093195;28;20003;-74
2022/08/21 07:59:16;;;;;;;;;;;16.50;99.90;;;;;;5094401;28;20422;-72
2022/08/21 08:01:42;;;;;;;;;;;16.70;99.90;;;;;;5093164;28;19915;-74
2022/08/21 08:04:08;;;;;;;;;;;16.80;99.90;;;;;;5093555;28;20053;-74
2022/08/21 08:06:33;;;;;;;;;;;16.90;99.90;;;;;;5093454;28;19954;-74
2022/08/21 08:09:02;;;;;;;;;;;17.00;99.90;;;;;;5092931;28;19908;-74
2022/08/21 08:11:28;;;;;;;;;;;17.10;99.90;;;;;;5093773;28;20015;-73
2022/08/21 08:13:53;;;;;;;;;;;17.20;99.90;;;;;;5092196;28;20375;-73
2022/08/21 08:16:19;;;;;;;;;;;17.30;99.90;;;;;;5093370;28;19912;-73
2022/08/21 08:18:45;;;;;;;;;;;17.40;99.90;;;;;;5092546;28;20335;-74
2022/08/21 08:21:11;;;;;;;;;;;17.50;99.90;;;;;;5093336;28;19933;-73
2022/08/21 08:23:37;;;;;;;;;;;17.60;99.90;;;;;;5093188;28;19912;-73
2022/08/21 08:26:03;;;;;;;;;;;17.70;99.90;;;;;;5092629;28;19908;-73
2022/08/21 08:28:30;;;;;;;;;;;17.80;99.90;;;;;;5092067;28;19908;-73
2022/08/21 08:30:55;;;;;;;;;;;17.90;99.90;;;;;;5092600;28;19908;-74
2022/08/21 08:33:21;;;;;;;;;;;18.00;99.90;;;;;;5091868;28;19954;-74
2022/08/21 08:35:48;;;;;;;;;;;18.00;99.90;;;;;;5092602;28;20265;-74
2022/08/21 08:38:18;;;;;;;;;;;17.80;99.90;;;;;;5093184;28;19912;-74
2022/08/21 08:40:47;;;;;;;;;;;17.80;99.90;;;;;;5092128;28;20458;-74
2022/08/21 08:43:13;;;;;;;;;;;17.70;99.90;;;;;;5093154;28;19916;-73
2022/08/21 08:45:40;;;;;;;;;;;17.60;99.90;;;;;;5093068;28;20254;-73
2022/08/21 08:48:07;;;;;;;;;;;17.60;99.90;;;;;;5092574;28;19915;-73
2022/08/21 08:50:32;;;;;;;;;;;17.50;99.90;;;;;;5092799;28;20254;-73
2022/08/21 08:53:02;;;;;;;;;;;17.30;99.90;;;;;;5092266;28;19915;-73
2022/08/21 08:55:39;;;;;;;;;;;17.20;99.90;;;;;;5092929;28;19912;-73
2022/08/21 08:58:04;;;;;;;;;;;17.20;99.90;;;;;;5092398;28;19920;-73
2022/08/21 09:00:30;;;;;;;;;;;17.10;99.90;;;;;;5093271;28;19991;-73
2022/08/21 09:02:58;;;;;;;;;;;17.10;99.90;;;;;;5092016;28;19961;-73
2022/08/21 09:05:29;;;;;;;;;;;17.10;99.90;;;;;;5092814;28;20002;-73
2022/08/21 09:08:11;;;;;;;;;;;17.30;99.90;;;;;;5092289;28;20010;-73
2022/08/21 09:11:02;;;;;;;;;;;17.40;99.90;;;;;;5092560;28;20007;-73
2022/08/21 09:13:46;;;;;;;;;;;17.60;99.90;;;;;;5090330;28;19943;-73
2022/08/21 09:16:16;;;;;;;;;;;17.70;99.90;;;;;;5092290;28;19912;-73
2022/08/21 09:19:02;;;;;;;;;;;17.80;99.90;;;;;;5092428;28;19966;-73
2022/08/21 09:21:36;;;;;;;;;;;17.70;99.90;;;;;;5092986;28;19912;-74
2022/08/21 09:24:01;;;;;;;;;;;17.80;99.90;;;;;;5092215;28;20294;-74
2022/08/21 09:26:30;;;;;;;;;;;17.80;99.90;;;;;;5097122;28;20411;-74
2022/08/21 09:29:00;;;;;;;;;;;17.70;99.90;;;;;;5096255;28;20022;-74
2022/08/21 09:31:30;;;;;;;;;;;17.90;99.90;;;;;;5096804;28;20354;-74
2022/08/21 09:34:00;;;;;;;;;;;18.00;99.90;;;;;;5096085;28;20344;-74
2022/08/21 09:36:31;;;;;;;;;;;18.10;99.90;;;;;;5096357;28;19912;-74
2022/08/21 09:38:57;;;;;;;;;;;18.20;99.90;;;;;;5095735;28;20365;-74
2022/08/21 09:41:26;;;;;;;;;;;18.10;99.90;;;;;;5096214;28;19912;-74
2022/08/21 09:43:52;;;;;;;;;;;18.10;99.90;;;;;;5095771;28;19915;-74
2022/08/21 09:46:22;;;;;;;;;;;18.20;99.90;;;;;;5095811;28;19912;-74
2022/08/21 09:48:49;;;;;;;;;;;18.20;99.90;;;;;;5095867;28;19912;-74
2022/08/21 09:51:17;;;;;;;;;;;18.10;99.90;;;;;;5096287;28;19908;-74
2022/08/21 09:53:45;;;;;;;;;;;18.20;99.90;;;;;;5096237;28;19908;-74
2022/08/21 09:59:12;;;;;;;;;;;18.30;99.90;;;;;;5095675;28;19919;-73
2022/08/21 10:01:42;;;;;;;;;;;18.30;99.90;;;;;;5096247;28;19955;-73
2022/08/21 10:04:08;;;;;;;;;;;18.40;99.90;;;;;;5095714;28;19912;-74
2022/08/21 10:06:34;;;;;;;;;;;18.50;99.90;;;;;;5094500;28;19915;-73
2022/08/21 10:09:05;;;;;;;;;;;18.40;99.90;;;;;;5095203;28;19908;-73
2022/08/21 10:11:31;;;;;;;;;;;18.10;99.90;;;;;;5095881;28;20006;-73
2022/08/21 10:14:01;;;;;;;;;;;17.90;99.90;;;;;;5095211;28;20226;-74
2022/08/21 10:16:48;;;;;;;;;;;17.70;99.90;;;;;;5095786;28;19912;-73
2022/08/21 10:19:25;;;;;;;;;;;17.60;99.90;;;;;;5095788;28;19912;-73
2022/08/21 10:21:56;;;;;;;;;;;17.60;99.90;;;;;;5094921;28;19916;-73
2022/08/21 10:24:37;;;;;;;;;;;17.70;99.90;;;;;;5095399;28;20403;-74
2022/08/21 10:27:08;;;;;;;;;;;17.70;99.90;;;;;;5095175;28;19908;-74
2022/08/21 10:29:52;;;;;;;;;;;17.90;99.90;;;;;;5095211;28;20357;-74
2022/08/21 10:32:36;;;;;;;;;;;18.00;99.90;;;;;;5095543;28;20379;-74
2022/08/21 10:35:22;;;;;;;;;;;18.10;99.90;;;;;;5093997;28;19927;-73
2022/08/21 10:37:57;;;;;;;;;;;18.20;99.90;;;;;;5084674;28;19920;-74
2022/08/21 10:40:40;;;;;;;;;;;18.20;99.90;;;;;;5094000;28;19994;-74
2022/08/21 10:43:29;;;;;;;;;;;18.30;99.90;;;;;;5093961;28;19915;-74
2022/08/21 10:45:54;;;;;;;;;;;18.30;99.90;;;;;;5088535;28;19930;-73
2022/08/21 10:48:35;;;;;;;;;;;18.30;99.90;;;;;;5095112;28;20375;-75
2022/08/21 10:51:09;;;;;;;;;;;18.40;99.90;;;;;;5095256;28;19908;-74
2022/08/21 10:53:47;;;;;;;;;;;18.50;99.90;;;;;;5095083;28;20003;-73
2022/08/21 10:56:24;;;;;;;;;;;18.50;99.90;;;;;;5094335;28;19966;-73
2022/08/21 10:58:55;;;;;;;;;;;18.50;99.90;;;;;;5094726;28;19957;-74
2022/08/21 11:01:47;;;;;;;;;;;18.30;99.90;;;;;;5095150;28;19908;-73
2022/08/21 11:04:17;;;;;;;;;;;18.40;99.90;;;;;;5077916;28;19908;-73
2022/08/21 11:06:49;;;;;;;;;;;18.40;99.90;;;;;;5095260;28;19915;-73
2022/08/21 11:09:17;;;;;;;;;;;18.50;99.90;;;;;;5094544;28;19913;-73
2022/08/21 11:11:48;;;;;;;;;;;18.50;99.90;;;;;;5094599;28;19915;-74
2022/08/21 11:14:37;;;;;;;;;;;18.50;99.90;;;;;;5093935;28;20361;-73
2022/08/21 11:17:10;;;;;;;;;;;18.70;99.90;;;;;;5087811;28;19912;-73
2022/08/21 11:19:49;;;;;;;;;;;18.70;99.90;;;;;;5094331;28;19912;-74
2022/08/21 11:22:21;;;;;;;;;;;18.80;99.90;;;;;;5094131;28;19908;-73
2022/08/21 11:25:06;;;;;;;;;;;18.90;99.90;;;;;;5092975;28;19914;-74
2022/08/21 11:27:38;;;;;;;;;;;18.90;99.90;;;;;;5094402;28;19908;-74
2022/08/21 11:30:05;;;;;;;;;;;18.80;99.90;;;;;;5093480;28;19908;-74
2022/08/21 11:32:45;;;;;;;;;;;18.80;99.90;;;;;;5094580;28;20383;-73
2022/08/21 11:35:28;;;;;;;;;;;18.90;99.90;;;;;;5093657;28;20169;-74
2022/08/21 11:37:53;;;;;;;;;;;18.90;99.90;;;;;;5093478;28;19955;-74
2022/08/21 11:40:28;;;;;;;;;;;19.00;99.90;;;;;;5094493;28;19956;-74
2022/08/21 11:42:54;;;;;;;;;;;19.10;99.90;;;;;;5093378;28;19961;-74
2022/08/21 11:45:26;;;;;;;;;;;19.10;99.90;;;;;;5093835;28;19912;-74
2022/08/21 11:47:52;;;;;;;;;;;19.00;99.90;;;;;;5094031;28;20337;-74
2022/08/21 11:50:20;;;;;;;;;;;19.00;99.90;;;;;;5093111;28;20007;-74
2022/08/21 11:52:50;;;;;;;;;;;19.10;99.90;;;;;;5093550;28;19912;-74
2022/08/21 11:55:19;;;;;;;;;;;19.10;99.90;;;;;;5093598;28;19944;-73
2022/08/21 11:57:54;;;;;;;;;;;19.10;99.90;;;;;;5093817;28;19919;-74
2022/08/21 12:00:20;;;;;;;;;;;19.20;99.90;;;;;;5093822;28;20003;-74
2022/08/21 12:02:49;;;;;;;;;;;19.30;99.90;;;;;;5092082;28;19963;-74
2022/08/21 12:05:34;;;;;;;;;;;19.30;99.90;;;;;;5092726;28;19904;-73
2022/08/21 12:08:03;;;;;;;;;;;19.30;99.90;;;;;;5092129;28;20268;-73
2022/08/21 12:10:39;;;;;;;;;;;19.40;99.90;;;;;;5093572;28;19909;-72
2022/08/21 12:13:11;;;;;;;;;;;19.40;99.90;;;;;;5092286;28;19908;-74
2022/08/21 12:15:37;;;;;;;;;;;19.40;99.90;;;;;;5093379;28;19935;-74
2022/08/21 12:18:18;;;;;;;;;;;19.40;99.90;;;;;;5091425;28;19958;-74
2022/08/21 12:20:56;;;;;;;;;;;19.50;99.90;;;;;;5093399;28;19908;-73
2022/08/21 12:23:32;;;;;;;;;;;19.50;99.90;;;;;;5093277;28;19911;-73
2022/08/21 12:26:13;;;;;;;;;;;19.60;99.90;;;;;;5091912;28;20398;-75
2022/08/21 12:28:39;;;;;;;;;;;19.60;99.90;;;;;;5093112;28;19919;-74
2022/08/21 12:31:04;;;;;;;;;;;19.80;99.90;;;;;;5092624;28;19908;-74
2022/08/21 12:33:32;;;;;;;;;;;19.80;99.90;;;;;;5092938;28;20421;-74
2022/08/21 12:36:07;;;;;;;;;;;19.70;99.90;;;;;;5092377;28;20264;-75
2022/08/21 12:38:39;;;;;;;;;;;19.60;99.90;;;;;;5093249;28;19920;-74
2022/08/21 12:41:25;;;;;;;;;;;19.70;99.90;;;;;;5092575;28;19908;-74
2022/08/21 12:43:57;;;;;;;;;;;19.70;99.90;;;;;;5092427;28;19908;-74
2022/08/21 12:46:46;;;;;;;;;;;19.70;99.90;;;;;;5092727;28;20356;-73
2022/08/21 12:49:14;;;;;;;;;;;19.80;99.90;;;;;;5085998;28;19908;-74
2022/08/21 12:51:43;;;;;;;;;;;19.90;99.90;;;;;;5092440;28;19919;-74
2022/08/21 12:54:08;;;;;;;;;;;19.90;99.90;;;;;;5092151;28;19963;-74
2022/08/21 12:56:35;;;;;;;;;;;19.90;99.90;;;;;;5092603;28;20009;-74
2022/08/21 12:59:06;;;;;;;;;;;20.00;99.90;;;;;;5091794;28;20383;-75
2022/08/21 13:01:36;;;;;;;;;;;20.00;99.90;;;;;;5092643;28;19908;-74
2022/08/21 13:04:03;;;;;;;;;;;20.10;99.90;;;;;;5091357;28;20004;-74
2022/08/21 13:06:32;;;;;;;;;;;20.20;99.90;;;;;;5092433;28;20349;-74
2022/08/21 13:09:03;;;;;;;;;;;20.20;99.90;;;;;;5092196;28;19908;-75
2022/08/21 13:11:29;;;;;;;;;;;20.30;99.90;;;;;;5092104;28;19915;-74
2022/08/21 13:13:56;;;;;;;;;;;20.30;99.90;;;;;;5092511;28;19908;-74
2022/08/21 13:16:27;;;;;;;;;;;20.30;99.90;;;;;;5091951;28;19912;-74
2022/08/21 13:19:06;;;;;;;;;;;20.40;99.90;;;;;;5091232;28;20257;-74
2022/08/21 13:21:35;;;;;;;;;;;20.20;99.90;;;;;;5092466;28;19916;-75
2022/08/21 13:24:12;;;;;;;;;;;20.10;99.90;;;;;;5092240;28;20282;-76
2022/08/21 13:26:38;;;;;;;;;;;19.90;99.90;;;;;;5092403;28;19912;-74
2022/08/21 13:29:12;;;;;;;;;;;20.00;99.90;;;;;;5090519;28;19915;-75
2022/08/21 13:31:38;;;;;;;;;;;20.10;99.90;;;;;;5092369;28;19916;-74
2022/08/21 13:34:05;;;;;;;;;;;20.20;99.90;;;;;;5090277;28;19927;-75
2022/08/21 13:36:35;;;;;;;;;;;20.30;99.90;;;;;;5092123;28;20369;-74
2022/08/21 13:39:02;;;;;;;;;;;20.40;99.90;;;;;;5091843;28;19919;-76
2022/08/21 13:41:30;;;;;;;;;;;20.40;99.90;;;;;;5091995;28;19912;-74
2022/08/21 13:43:58;;;;;;;;;;;20.40;99.90;;;;;;5092115;28;19908;-74
2022/08/21 13:46:24;;;;;;;;;;;20.50;99.90;;;;;;5090609;28;19959;-74
2022/08/21 13:48:50;;;;;;;;;;;20.50;99.90;;;;;;5092361;28;19908;-74
2022/08/21 13:51:16;;;;;;;;;;;20.50;99.90;;;;;;5092051;28;19915;-74
2022/08/21 13:53:44;;;;;;;;;;;20.50;99.90;;;;;;5092079;28;19912;-73
2022/08/21 13:56:20;;;;;;;;;;;20.50;99.90;;;;;;5091509;28;19963;-73
2022/08/21 13:58:46;;;;;;;;;;;20.40;99.90;;;;;;5091965;28;19912;-74
2022/08/21 14:01:22;;;;;;;;;;;20.20;99.90;;;;;;5091238;28;19908;-76
2022/08/21 14:03:48;;;;;;;;;;;20.20;99.90;;;;;;5092142;28;19993;-73
2022/08/21 14:06:16;;;;;;;;;;;20.40;99.90;;;;;;5091682;28;19908;-73
2022/08/21 14:08:46;;;;;;;;;;;20.40;99.90;;;;;;5091261;28;19908;-74
2022/08/21 14:11:12;;;;;;;;;;;20.60;99.90;;;;;;5089904;28;19915;-74
2022/08/21 14:13:46;;;;;;;;;;;20.60;99.90;;;;;;5095073;28;19912;-74
2022/08/21 14:16:25;;;;;;;;;;;20.60;99.90;;;;;;5094295;28;19977;-73
2022/08/21 14:18:59;;;;;;;;;;;20.60;99.90;;;;;;5095070;28;19919;-74
2022/08/21 14:21:35;;;;;;;;;;;20.60;99.90;;;;;;5094624;28;19912;-74
2022/08/21 14:24:05;;;;;;;;;;;20.70;99.90;;;;;;5095213;28;19973;-75
2022/08/21 14:26:32;;;;;;;;;;;20.80;99.90;;;;;;5094691;28;19995;-75